Time;durP1;ratioP1;P1;durP2;ratioP2;P2;SDS_P1;SDS_P2;PMS_P1;PMS_P2;Temp;Humidity;BMP_temperature;BMP_pressure;BME280_temperature;BME280_humidity;BME280_pressure;Samples;Min_cycle;Max_cycle;Signal;HPM_P1;HPM_P2
2023/08/01 00:00:01;;;;;;;1.10;1.05;;;16.20;99.90;;;;;;5131196;27;20074;-79
2023/08/01 00:02:27;;;;;;;1.50;1.40;;;16.10;99.90;;;;;;5127475;27;20084;-81
2023/08/01 00:04:52;;;;;;;;;;;16.10;99.90;;;;;;5110561;27;20059;-81
2023/08/01 00:07:18;;;;;;;0.38;0.38;;;16.20;99.90;;;;;;5133356;27;19922;-80
2023/08/01 00:09:43;;;;;;;1.75;0.55;;;16.20;99.90;;;;;;5122347;27;20527;-79
2023/08/01 00:12:09;;;;;;;;;;;16.20;99.90;;;;;;5111607;27;20043;-80
2023/08/01 00:14:36;;;;;;;0.85;0.85;;;16.20;99.90;;;;;;5129583;27;19967;-80
2023/08/01 00:17:01;;;;;;;0.30;0.30;;;16.20;99.90;;;;;;5109939;27;20047;-81
2023/08/01 00:19:28;;;;;;;0.52;0.52;;;16.20;99.90;;;;;;5115679;27;20042;-79
2023/08/01 00:21:54;;;;;;;0.38;0.38;;;16.20;99.90;;;;;;5128055;27;20487;-79
2023/08/01 00:24:19;;;;;;;6.40;0.60;;;16.10;99.90;;;;;;5132480;27;20068;-78
2023/08/01 00:26:45;;;;;;;;;;;16.00;99.90;;;;;;5115231;27;20038;-80
2023/08/01 00:29:10;;;;;;;0.43;0.43;;;16.00;99.90;;;;;;5131518;27;20005;-81
2023/08/01 00:31:37;;;;;;;;;;;15.90;99.90;;;;;;5133934;27;20035;-80
2023/08/01 00:34:03;;;;;;;0.43;0.43;;;15.90;99.90;;;;;;5110156;27;20035;-80
2023/08/01 00:36:32;;;;;;;0.50;0.50;;;15.80;99.90;;;;;;5145675;27;20462;-79
2023/08/01 00:38:58;;;;;;;0.28;0.28;;;15.80;99.90;;;;;;5119029;27;20046;-79
2023/08/01 00:41:23;;;;;;;;;;;15.80;99.90;;;;;;5130956;27;20042;-80
2023/08/01 00:43:53;;;;;;;0.45;0.45;;;15.80;99.90;;;;;;5146807;27;19915;-80
2023/08/01 00:46:19;;;;;;;0.40;0.40;;;15.80;99.90;;;;;;5132136;27;20050;-80
2023/08/01 00:48:45;;;;;;;;;;;15.80;99.90;;;;;;5116477;27;20076;-81
2023/08/01 00:51:12;;;;;;;0.85;0.57;;;15.80;99.90;;;;;;5114295;27;19951;-81
2023/08/01 00:53:38;;;;;;;0.30;0.30;;;15.80;99.90;;;;;;5099890;27;20042;-81
2023/08/01 00:56:03;;;;;;;0.30;0.30;;;15.70;99.90;;;;;;5127659;27;20156;-80
2023/08/01 00:58:29;;;;;;;;;;;15.70;99.90;;;;;;5132354;27;20121;-81
2023/08/01 01:00:59;;;;;;;0.38;0.38;;;15.70;99.90;;;;;;5112969;27;19966;-81
2023/08/01 01:03:31;;;;;;;11.48;2.03;;;15.70;99.90;;;;;;5100073;27;20038;-81
2023/08/01 01:06:02;;;;;;;;;;;15.60;99.90;;;;;;5152020;27;20038;-80
2023/08/01 01:08:27;;;;;;;0.70;0.45;;;15.60;99.90;;;;;;5132345;27;19919;-80
2023/08/01 01:10:53;;;;;;;0.20;0.20;;;15.60;99.90;;;;;;5110570;27;20851;-80
2023/08/01 01:13:19;;;;;;;;;;;15.60;99.90;;;;;;5130807;27;20411;-80
2023/08/01 01:15:44;;;;;;;0.43;0.43;;;15.50;99.90;;;;;;5131985;27;20291;-79
2023/08/01 01:18:10;;;;;;;;;;;15.50;99.90;;;;;;5114713;27;20034;-81
2023/08/01 01:20:36;;;;;;;0.30;0.30;;;15.40;99.90;;;;;;5115429;27;19954;-81
2023/08/01 01:23:05;;;;;;;0.43;0.43;;;15.30;99.90;;;;;;5133097;27;20038;-81
2023/08/01 01:25:32;;;;;;;0.40;0.40;;;15.30;99.90;;;;;;5137012;27;20500;-81
2023/08/01 01:28:02;;;;;;;0.30;0.30;;;15.30;99.90;;;;;;5132060;27;20504;-79
2023/08/01 01:30:29;;;;;;;0.80;0.45;;;15.20;99.90;;;;;;5154017;27;20596;-80
2023/08/01 01:32:55;;;;;;;0.70;0.70;;;15.20;99.90;;;;;;5119913;27;20034;-80
2023/08/01 01:35:20;;;;;;;0.40;0.40;;;15.10;99.90;;;;;;5119207;27;20038;-79
2023/08/01 01:37:46;;;;;;;;;;;15.10;99.90;;;;;;5120083;27;20057;-79
2023/08/01 01:40:12;;;;;;;1.75;0.45;;;15.00;99.90;;;;;;5131700;27;19919;-79
2023/08/01 01:42:37;;;;;;;;;;;14.90;99.90;;;;;;5132947;27;20452;-83
2023/08/01 01:45:03;;;;;;;0.50;0.50;;;14.90;99.90;;;;;;5127550;27;19925;-81
2023/08/01 01:47:29;;;;;;;;;;;14.90;99.90;;;;;;5126472;27;20494;-81
2023/08/01 01:49:55;;;;;;;0.50;0.50;;;14.80;99.90;;;;;;5132991;27;19927;-82
2023/08/01 01:52:22;;;;;;;0.30;0.30;;;14.80;99.90;;;;;;5134507;27;20134;-80
2023/08/01 01:54:48;;;;;;;0.40;0.40;;;14.80;99.90;;;;;;5114033;27;20039;-81
2023/08/01 01:57:14;;;;;;;0.50;0.50;;;14.70;99.90;;;;;;5105384;27;20069;-80
2023/08/01 01:59:39;;;;;;;0.65;0.65;;;14.70;99.90;;;;;;5132773;27;20119;-80
2023/08/01 02:02:06;;;;;;;0.40;0.40;;;14.70;99.90;;;;;;5111733;27;20435;-78
2023/08/01 02:04:32;;;;;;;0.30;0.30;;;14.80;99.90;;;;;;5128536;27;20068;-80
2023/08/01 02:06:58;;;;;;;0.40;0.40;;;14.70;99.90;;;;;;5131533;27;20023;-80
2023/08/01 02:09:24;;;;;;;0.30;0.30;;;14.70;99.90;;;;;;5118442;27;20044;-81
2023/08/01 02:11:50;;;;;;;0.40;0.40;;;14.60;99.90;;;;;;5117046;27;20086;-81
2023/08/01 02:14:15;;;;;;;0.45;0.45;;;14.60;99.90;;;;;;5116832;27;20039;-81
2023/08/01 02:16:42;;;;;;;0.40;0.40;;;14.50;99.90;;;;;;5103322;27;20043;-79
2023/08/01 02:19:08;;;;;;;0.35;0.35;;;14.50;99.90;;;;;;5149387;27;20042;-79
2023/08/01 02:21:33;;;;;;;0.40;0.40;;;14.50;99.90;;;;;;5114512;27;20039;-80
2023/08/01 02:24:00;;;;;;;0.30;0.30;;;14.40;99.90;;;;;;5136145;27;20034;-80
2023/08/01 02:26:26;;;;;;;0.40;0.40;;;14.40;99.90;;;;;;5117325;27;20046;-81
2023/08/01 02:28:51;;;;;;;0.40;0.40;;;14.40;99.90;;;;;;5133465;27;20510;-81
2023/08/01 02:31:17;;;;;;;0.22;0.22;;;14.30;99.90;;;;;;5094463;27;20031;-80
2023/08/01 02:33:44;;;;;;;;;;;14.30;99.90;;;;;;5135368;27;20097;-79
2023/08/01 02:36:11;;;;;;;1.13;1.13;;;14.30;99.90;;;;;;5129100;27;19915;-82
2023/08/01 02:38:37;;;;;;;1.33;0.93;;;14.30;99.90;;;;;;5135373;27;20411;-79
2023/08/01 02:41:07;;;;;;;0.30;0.30;;;14.20;99.90;;;;;;5151273;27;20043;-80
2023/08/01 02:43:34;;;;;;;0.35;0.35;;;14.30;99.90;;;;;;5115052;27;20384;-83
2023/08/01 02:46:07;;;;;;;0.40;0.40;;;14.30;99.90;;;;;;5134554;27;20182;-82
2023/08/01 02:48:35;;;;;;;0.40;0.40;;;14.30;99.90;;;;;;5114809;27;20042;-84
2023/08/01 02:51:03;;;;;;;0.65;0.65;;;14.30;99.90;;;;;;5093343;27;20117;-82
2023/08/01 02:53:29;;;;;;;1.10;0.50;;;14.30;99.90;;;;;;5113982;27;20377;-79
2023/08/01 02:55:54;;;;;;;1.38;0.77;;;14.30;99.90;;;;;;5118244;27;20059;-80
2023/08/01 02:58:20;;;;;;;;;;;14.30;99.90;;;;;;5117659;27;20525;-80
2023/08/01 03:00:53;;;;;;;0.60;0.60;;;14.30;99.90;;;;;;5135736;27;19954;-80
2023/08/01 03:03:19;;;;;;;0.50;0.50;;;14.30;99.90;;;;;;5131374;27;20049;-81
2023/08/01 03:05:45;;;;;;;0.85;0.85;;;14.40;99.90;;;;;;5115767;27;20050;-80
2023/08/01 03:08:11;;;;;;;0.40;0.40;;;14.40;99.90;;;;;;5118315;27;20521;-81
2023/08/01 03:10:36;;;;;;;;;;;13.80;99.90;;;;;;5118612;27;20051;-80
2023/08/01 03:13:02;;;;;;;0.40;0.40;;;14.40;99.90;;;;;;5135548;27;19994;-81
2023/08/01 03:15:28;;;;;;;0.25;0.25;;;14.40;99.90;;;;;;5110274;27;20576;-81
2023/08/01 03:17:54;;;;;;;0.45;0.45;;;14.50;99.90;;;;;;5117993;27;20043;-81
2023/08/01 03:20:19;;;;;;;0.55;0.55;;;14.50;99.90;;;;;;5081212;27;20039;-84
2023/08/01 03:22:45;;;;;;;0.63;0.40;;;14.60;99.90;;;;;;5131586;27;20035;-83
2023/08/01 03:25:15;;;;;;;0.40;0.40;;;14.60;99.90;;;;;;5096270;27;20476;-84
2023/08/01 03:27:42;;;;;;;1.25;1.15;;;14.60;99.90;;;;;;5118641;27;20121;-83
2023/08/01 03:30:08;;;;;;;0.63;0.60;;;14.70;99.90;;;;;;5119619;27;20039;-86
2023/08/01 03:32:34;;;;;;;;;;;14.70;99.90;;;;;;5118835;27;21376;-85
2023/08/01 03:35:00;;;;;;;0.40;0.40;;;14.80;99.90;;;;;;5134528;27;19922;-83
2023/08/01 03:37:26;;;;;;;0.60;0.60;;;14.80;99.90;;;;;;5102364;27;20039;-85
2023/08/01 03:39:53;;;;;;;0.88;0.88;;;14.80;99.90;;;;;;5098871;27;20093;-84
2023/08/01 03:42:20;;;;;;;0.55;0.55;;;14.90;99.90;;;;;;5091145;27;20042;-85
2023/08/01 03:44:46;;;;;;;0.75;0.75;;;14.80;99.90;;;;;;5112453;27;20079;-86
2023/08/01 03:47:12;;;;;;;;;;;14.90;99.90;;;;;;5116736;27;20031;-85
2023/08/01 03:49:38;;;;;;;0.50;0.50;;;14.90;99.90;;;;;;5127111;27;19919;-85
2023/08/01 03:52:06;;;;;;;1.17;1.05;;;14.90;99.90;;;;;;5095847;28;20093;-87
2023/08/01 03:54:31;;;;;;;6.70;1.17;;;14.90;99.90;;;;;;5126365;27;20043;-85
2023/08/01 03:57:00;;;;;;;0.35;0.35;;;14.80;99.90;;;;;;5112405;28;20035;-84
2023/08/01 03:59:26;;;;;;;0.40;0.40;;;14.90;99.90;;;;;;5074078;27;20047;-84
2023/08/01 04:01:56;;;;;;;0.77;0.77;;;14.90;99.90;;;;;;5109761;28;20028;-81
2023/08/01 04:04:22;;;;;;;0.50;0.50;;;14.80;99.90;;;;;;5079265;27;20039;-82
2023/08/01 04:06:48;;;;;;;0.40;0.40;;;14.90;99.90;;;;;;5132589;27;20080;-85
2023/08/01 04:09:13;;;;;;;;;;;14.90;99.90;;;;;;5114699;27;20373;-84
2023/08/01 04:11:39;;;;;;;0.60;0.60;;;14.90;99.90;;;;;;5113931;27;19919;-84
2023/08/01 04:14:05;;;;;;;;;;;14.80;99.90;;;;;;5122516;27;20095;-83
2023/08/01 04:16:30;;;;;;;0.45;0.45;;;14.80;99.90;;;;;;5118881;27;19930;-83
2023/08/01 04:18:56;;;;;;;;;;;14.80;99.90;;;;;;5132195;27;20404;-82
2023/08/01 04:21:22;;;;;;;0.40;0.40;;;14.90;99.90;;;;;;5131742;27;19997;-84
2023/08/01 04:23:47;;;;;;;0.68;0.68;;;14.80;99.90;;;;;;5128597;27;20551;-83
2023/08/01 04:26:13;;;;;;;;;;;14.80;99.90;;;;;;5114202;27;20031;-82
2023/08/01 04:28:39;;;;;;;0.65;0.57;;;14.80;99.90;;;;;;5130026;27;19980;-84
2023/08/01 04:31:05;;;;;;;;;;;14.90;99.90;;;;;;5107475;28;20047;-84
2023/08/01 04:33:30;;;;;;;0.40;0.40;;;14.80;99.90;;;;;;5130976;27;19919;-85
2023/08/01 04:35:56;;;;;;;;;;;14.80;99.90;;;;;;5131379;27;20391;-83
2023/08/01 04:38:22;;;;;;;0.65;0.40;;;14.80;99.90;;;;;;5125700;27;19963;-84
2023/08/01 04:40:48;;;;;;;0.40;0.40;;;14.90;99.90;;;;;;5114577;27;20078;-83
2023/08/01 04:43:13;;;;;;;0.40;0.40;;;14.90;99.90;;;;;;5098503;27;20034;-83
2023/08/01 04:45:39;;;;;;;;;;;14.90;99.90;;;;;;5101172;27;20130;-84
2023/08/01 04:48:05;;;;;;;1.20;1.10;;;14.90;99.90;;;;;;5117741;27;19915;-84
2023/08/01 04:50:31;;;;;;;0.63;0.50;;;14.90;99.90;;;;;;5132933;27;20121;-85
2023/08/01 04:52:57;;;;;;;0.50;0.50;;;14.80;99.90;;;;;;5115618;27;20367;-84
2023/08/01 04:55:23;;;;;;;0.45;0.45;;;14.80;99.90;;;;;;5138566;27;20145;-82
2023/08/01 04:57:49;;;;;;;0.60;0.60;;;14.90;99.90;;;;;;5136196;27;20035;-83
2023/08/01 05:00:15;;;;;;;0.40;0.40;;;14.90;99.90;;;;;;5136606;27;20042;-84
2023/08/01 05:02:41;;;;;;;0.43;0.43;;;15.00;99.90;;;;;;5101364;27;20405;-84
2023/08/01 05:05:07;;;;;;;0.40;0.40;;;15.00;99.90;;;;;;5139392;27;20069;-82
2023/08/01 05:07:32;;;;;;;0.60;0.60;;;15.10;99.90;;;;;;5109663;27;20394;-82
2023/08/01 05:09:58;;;;;;;0.40;0.40;;;15.10;99.90;;;;;;5115334;27;20046;-81
2023/08/01 05:12:24;;;;;;;1.55;1.20;;;15.20;99.90;;;;;;5138165;27;20043;-81
2023/08/01 05:14:49;;;;;;;;;;;15.40;99.90;;;;;;5138857;27;20038;-82
2023/08/01 05:17:15;;;;;;;0.30;0.30;;;15.60;99.90;;;;;;5121568;27;20100;-83
2023/08/01 05:19:41;;;;;;;0.70;0.70;;;15.90;99.90;;;;;;5117563;27;20480;-82
2023/08/01 05:22:07;;;;;;;0.35;0.35;;;16.10;99.90;;;;;;5115387;27;20042;-82
2023/08/01 05:24:32;;;;;;;;;;;16.30;99.90;;;;;;5113089;27;20030;-81
2023/08/01 05:26:58;;;;;;;0.40;0.40;;;16.30;99.90;;;;;;5138171;27;19915;-84
2023/08/01 05:29:24;;;;;;;0.40;0.40;;;16.20;99.90;;;;;;5116399;27;20066;-82
2023/08/01 05:31:49;;;;;;;;;;;16.10;99.90;;;;;;5129485;27;20047;-81
2023/08/01 05:34:15;;;;;;;0.30;0.30;;;16.10;99.90;;;;;;5119439;27;20268;-85
2023/08/01 05:36:41;;;;;;;0.30;0.30;;;15.90;99.90;;;;;;5121546;27;20035;-85
2023/08/01 05:39:07;;;;;;;0.75;0.75;;;15.80;99.90;;;;;;5114566;27;20047;-85
2023/08/01 05:41:33;;;;;;;0.40;0.40;;;15.60;99.90;;;;;;5099911;27;20034;-85
2023/08/01 05:43:58;;;;;;;0.50;0.50;;;15.50;99.90;;;;;;5089152;27;20103;-85
2023/08/01 05:46:24;;;;;;;;;;;15.50;99.90;;;;;;5088643;27;20043;-85
2023/08/01 05:48:51;;;;;;;0.75;0.75;;;15.40;99.90;;;;;;5117298;27;19965;-84
2023/08/01 05:51:16;;;;;;;0.40;0.40;;;15.40;99.90;;;;;;5118364;27;20035;-83
2023/08/01 05:53:42;;;;;;;0.40;0.40;;;15.40;99.90;;;;;;5118033;27;20410;-85
2023/08/01 05:56:08;;;;;;;;;;;15.40;99.90;;;;;;5117642;27;20067;-83
2023/08/01 05:58:34;;;;;;;0.32;0.32;;;15.50;99.90;;;;;;5119028;27;19969;-83
2023/08/01 06:00:59;;;;;;;;;;;15.60;99.90;;;;;;5103234;27;20130;-84
2023/08/01 06:03:25;;;;;;;0.30;0.30;;;15.70;99.90;;;;;;5120979;27;20003;-84
2023/08/01 06:05:51;;;;;;;1.05;0.73;;;15.90;99.90;;;;;;5112348;27;20507;-82
2023/08/01 06:08:16;;;;;;;;;;;16.10;99.90;;;;;;5121192;27;20053;-83
2023/08/01 06:10:42;;;;;;;1.05;1.05;;;16.10;99.90;;;;;;5119804;27;20039;-80
2023/08/01 06:13:08;;;;;;;2.17;1.00;;;16.00;99.90;;;;;;5112896;27;20042;-80
2023/08/01 06:15:34;;;;;;;0.30;0.30;;;15.90;99.90;;;;;;5119051;27;20399;-80
2023/08/01 06:18:00;;;;;;;0.32;0.32;;;15.80;99.90;;;;;;5097257;27;20162;-83
2023/08/01 06:20:26;;;;;;;0.30;0.30;;;15.70;99.90;;;;;;5113626;27;20092;-81
2023/08/01 06:22:52;;;;;;;1.65;0.63;;;15.70;99.90;;;;;;5107498;27;20043;-81
2023/08/01 06:25:18;;;;;;;0.68;0.68;;;15.60;99.90;;;;;;5121941;27;20149;-78
2023/08/01 06:27:43;;;;;;;;;;;15.70;99.90;;;;;;5128153;27;20049;-80
2023/08/01 06:30:10;;;;;;;1.63;1.52;;;15.70;99.90;;;;;;5138101;27;19922;-79
2023/08/01 06:32:35;;;;;;;0.30;0.30;;;15.70;99.90;;;;;;5147916;27;20049;-79
2023/08/01 06:35:01;;;;;;;0.38;0.38;;;15.70;99.90;;;;;;5131949;27;20500;-82
2023/08/01 06:37:27;;;;;;;;;;;15.70;99.90;;;;;;5096685;27;20107;-81
2023/08/01 06:39:54;;;;;;;0.65;0.65;;;15.70;99.90;;;;;;5121418;27;19927;-81
2023/08/01 06:42:20;;;;;;;0.20;0.20;;;15.80;99.90;;;;;;5076558;27;20070;-78
2023/08/01 06:44:47;;;;;;;0.40;0.40;;;15.80;99.90;;;;;;5091569;27;20047;-81
2023/08/01 06:47:12;;;;;;;0.75;0.75;;;15.80;99.90;;;;;;5091062;28;20488;-81
2023/08/01 06:49:38;;;;;;;0.32;0.32;;;15.80;99.90;;;;;;5108798;27;20127;-76
2023/08/01 06:52:04;;;;;;;;;;;15.70;99.90;;;;;;5093444;28;20536;-79
2023/08/01 06:54:29;;;;;;;0.40;0.40;;;15.70;99.90;;;;;;5126785;27;19951;-80
2023/08/01 06:56:55;;;;;;;0.75;0.75;;;15.70;99.90;;;;;;5103258;27;20043;-81
2023/08/01 06:59:20;;;;;;;;;;;15.70;99.90;;;;;;5109611;27;20043;-77
2023/08/01 07:01:46;;;;;;;0.30;0.30;;;15.70;99.90;;;;;;5102919;27;19998;-78
2023/08/01 07:04:13;;;;;;;0.38;0.38;;;15.80;99.90;;;;;;5125876;27;20035;-78
2023/08/01 07:06:39;;;;;;;5.25;2.38;;;15.90;99.90;;;;;;5107813;27;20043;-77
2023/08/01 07:09:05;;;;;;;0.30;0.30;;;16.10;99.90;;;;;;5109099;27;20450;-78
2023/08/01 07:11:31;;;;;;;0.50;0.50;;;16.20;99.90;;;;;;5120166;27;20080;-78
2023/08/01 07:13:57;;;;;;;0.43;0.43;;;16.30;99.90;;;;;;5126107;27;20108;-79
2023/08/01 07:16:22;;;;;;;;;;;16.30;99.90;;;;;;5112904;27;20439;-79
2023/08/01 07:18:48;;;;;;;1.63;0.40;;;16.40;99.90;;;;;;5125326;27;19926;-79
2023/08/01 07:21:15;;;;;;;;;;;16.40;99.90;;;;;;5126077;27;20039;-81
2023/08/01 07:23:41;;;;;;;0.20;0.20;;;16.50;99.90;;;;;;5124456;27;19926;-79
2023/08/01 07:26:08;;;;;;;;;;;16.70;99.90;;;;;;5125083;27;20047;-79
2023/08/01 07:28:37;;;;;;;0.30;0.30;;;17.00;99.90;;;;;;5124908;27;19926;-82
2023/08/01 07:31:05;;;;;;;0.80;0.40;;;17.30;99.90;;;;;;5105623;28;20040;-81
2023/08/01 07:33:31;;;;;;;0.73;0.73;;;17.50;99.90;;;;;;5126228;27;20122;-82
2023/08/01 07:35:57;;;;;;;0.40;0.40;;;17.50;99.90;;;;;;5102926;27;20487;-81
2023/08/01 07:38:23;;;;;;;0.35;0.35;;;17.50;99.90;;;;;;5123645;27;20047;-81
2023/08/01 07:40:50;;;;;;;;;;;17.50;99.90;;;;;;5090918;27;20501;-79
2023/08/01 07:43:18;;;;;;;0.30;0.30;;;17.50;99.90;;;;;;5121515;27;19923;-83
2023/08/01 07:45:44;;;;;;;0.30;0.30;;;17.30;99.90;;;;;;5121970;27;20048;-82
2023/08/01 07:48:10;;;;;;;0.20;0.20;;;17.10;99.90;;;;;;5108450;27;20137;-82
2023/08/01 07:50:36;;;;;;;0.30;0.30;;;17.00;99.90;;;;;;5107384;27;20062;-79
2023/08/01 07:53:02;;;;;;;;;;;16.80;99.90;;;;;;5096222;27;20043;-82
2023/08/01 07:55:27;;;;;;;0.30;0.30;;;16.70;99.90;;;;;;5112211;27;19926;-81
2023/08/01 07:57:53;;;;;;;;;;;16.60;99.90;;;;;;5105741;28;20401;-80
2023/08/01 08:00:19;;;;;;;0.30;0.30;;;16.60;99.90;;;;;;5123132;27;20023;-81
2023/08/01 08:02:45;;;;;;;;;;;16.80;99.90;;;;;;5092230;27;20027;-82
2023/08/01 08:05:11;;;;;;;4.28;0.38;;;17.00;99.90;;;;;;5122931;27;19919;-82
2023/08/01 08:07:37;;;;;;;;;;;17.10;99.90;;;;;;5090219;27;20036;-80
2023/08/01 08:10:04;;;;;;;0.40;0.40;;;17.20;99.90;;;;;;5119705;27;20017;-80
2023/08/01 08:12:30;;;;;;;0.25;0.25;;;17.30;99.90;;;;;;5107713;27;20057;-81
2023/08/01 08:14:58;;;;;;;0.30;0.30;;;17.40;99.90;;;;;;5105876;27;20042;-80
2023/08/01 08:17:24;;;;;;;0.40;0.40;;;17.50;99.90;;;;;;5106248;27;20070;-79
2023/08/01 08:19:49;;;;;;;1.40;1.30;;;17.50;99.90;;;;;;5126430;27;20071;-79
2023/08/01 08:22:15;;;;;;;0.32;0.32;;;17.50;99.90;;;;;;5125230;27;20039;-81
2023/08/01 08:24:41;;;;;;;;;;;17.70;99.90;;;;;;5106702;27;20646;-80
2023/08/01 08:27:07;;;;;;;0.30;0.30;;;17.80;99.90;;;;;;5106793;27;19915;-80
2023/08/01 08:29:32;;;;;;;;;;;17.80;99.90;;;;;;5108138;28;20118;-80
2023/08/01 08:31:58;;;;;;;0.20;0.20;;;17.50;99.90;;;;;;5122269;27;19959;-81
2023/08/01 08:34:30;;;;;;;0.32;0.32;;;17.30;99.90;;;;;;5116672;27;20068;-82
2023/08/01 08:36:56;;;;;;;2.20;0.88;;;17.00;99.90;;;;;;5094912;28;20814;-81
2023/08/01 08:39:24;;;;;;;0.50;0.50;;;16.80;99.90;;;;;;5115869;27;20446;-81
2023/08/01 08:41:57;;;;;;;0.50;0.50;;;16.70;99.90;;;;;;5109149;28;20096;-85
2023/08/01 08:44:29;;;;;;;0.40;0.40;;;16.50;99.90;;;;;;5094969;28;20050;-81
2023/08/01 08:47:01;;;;;;;0.20;0.20;;;16.20;99.90;;;;;;5109504;28;20063;-80
2023/08/01 08:49:32;;;;;;;0.30;0.30;;;16.00;99.90;;;;;;5117975;27;20043;-81
2023/08/01 08:51:58;;;;;;;0.30;0.30;;;15.90;99.90;;;;;;5126098;28;20471;-81
2023/08/01 08:54:25;;;;;;;0.30;0.30;;;15.90;99.90;;;;;;5110052;28;20039;-81
2023/08/01 08:56:51;;;;;;;0.20;0.20;;;16.00;99.90;;;;;;5108632;28;20526;-82
2023/08/01 08:59:18;;;;;;;0.30;0.30;;;16.10;99.90;;;;;;5107683;28;20046;-80
2023/08/01 09:01:45;;;;;;;0.47;0.47;;;16.20;99.90;;;;;;5125820;27;20943;-82
2023/08/01 09:04:10;;;;;;;0.28;0.28;;;16.30;99.90;;;;;;5103379;28;20213;-84
2023/08/01 09:06:51;;;;;;;0.30;0.30;;;16.40;99.90;;;;;;5092687;28;20127;-81
2023/08/01 09:09:18;;;;;;;0.30;0.30;;;16.40;99.90;;;;;;5110835;28;20047;-83
2023/08/01 09:11:51;;;;;;;0.30;0.30;;;16.50;99.90;;;;;;5103746;28;20049;-81
2023/08/01 09:14:20;;;;;;;0.30;0.30;;;17.00;99.90;;;;;;5108421;28;20483;-83
2023/08/01 09:16:47;;;;;;;0.20;0.20;;;17.60;99.90;;;;;;5125365;28;20054;-81
2023/08/01 09:19:23;;;;;;;0.30;0.30;;;17.90;99.90;;;;;;5130360;28;20105;-82
2023/08/01 09:21:50;;;;;;;0.30;0.30;;;17.90;99.90;;;;;;5112361;28;20035;-81
2023/08/01 09:24:18;;;;;;;0.28;0.28;;;17.70;99.90;;;;;;5103289;28;20638;-83
2023/08/01 09:26:46;;;;;;;0.30;0.30;;;17.60;99.90;;;;;;5112254;28;20130;-81
2023/08/01 09:29:20;;;;;;;0.20;0.20;;;17.50;99.90;;;;;;5108593;28;20438;-80
2023/08/01 09:31:49;;;;;;;0.28;0.28;;;17.30;99.90;;;;;;5109799;28;20039;-82
2023/08/01 09:34:22;;;;;;;0.20;0.20;;;17.20;99.90;;;;;;5091229;28;20050;-84
2023/08/01 09:36:50;;;;;;;0.20;0.20;;;17.10;99.90;;;;;;5129216;28;20031;-84
2023/08/01 09:39:19;;;;;;;0.30;0.30;;;16.90;99.90;;;;;;5094739;28;20048;-82
2023/08/01 09:41:44;;;;;;;0.20;0.20;;;16.60;99.90;;;;;;5112456;27;20046;-83
2023/08/01 09:44:12;;;;;;;0.35;0.35;;;16.30;99.90;;;;;;5121996;27;20039;-82
2023/08/01 09:46:37;;;;;;;0.28;0.28;;;16.30;99.90;;;;;;5128086;27;20545;-81
2023/08/01 09:49:11;;;;;;;0.28;0.28;;;15.80;99.90;;;;;;5113537;27;20118;-83
2023/08/01 09:51:50;;;;;;;0.30;0.30;;;16.30;99.90;;;;;;5124591;27;20120;-81
2023/08/01 09:54:18;;;;;;;0.20;0.20;;;16.50;99.90;;;;;;5096675;27;20045;-81
2023/08/01 09:56:45;;;;;;;0.20;0.20;;;16.90;99.90;;;;;;5130562;27;20306;-82
2023/08/01 09:59:11;;;;;;;0.30;0.30;;;17.20;99.90;;;;;;5114681;27;20042;-82
2023/08/01 10:01:38;;;;;;;;;;;17.50;99.90;;;;;;5128427;27;20047;-80
2023/08/01 10:04:04;;;;;;;0.28;0.28;;;17.90;99.90;;;;;;5129252;27;20006;-81
2023/08/01 10:06:33;;;;;;;0.30;0.30;;;18.40;99.90;;;;;;5124829;27;20031;-83
2023/08/01 10:09:00;;;;;;;0.30;0.30;;;18.80;99.90;;;;;;5114861;27;20047;-81
2023/08/01 10:11:28;;;;;;;0.20;0.20;;;19.10;99.90;;;;;;5103873;27;20636;-82
2023/08/01 10:13:55;;;;;;;0.20;0.20;;;19.10;99.90;;;;;;5130425;27;20123;-82
2023/08/01 10:16:22;;;;;;;0.30;0.30;;;19.20;99.90;;;;;;5126091;27;20043;-81
2023/08/01 10:18:49;;;;;;;0.10;0.10;;;19.50;99.90;;;;;;5123304;27;20039;-82
2023/08/01 10:21:17;;;;;;;0.20;0.20;;;19.80;99.90;;;;;;5114039;27;20042;-85
2023/08/01 10:23:44;;;;;;;0.20;0.20;;;19.90;99.90;;;;;;5107506;27;20524;-82
2023/08/01 10:26:12;;;;;;;0.20;0.20;;;19.70;99.90;;;;;;5128908;27;20050;-82
2023/08/01 10:28:39;;;;;;;0.30;0.30;;;19.40;99.90;;;;;;5125847;27;20046;-81
2023/08/01 10:31:09;;;;;;;0.30;0.30;;;18.50;99.90;;;;;;5112142;27;20052;-82
2023/08/01 10:33:35;;;;;;;0.20;0.20;;;18.20;99.90;;;;;;5110074;27;20043;-82
2023/08/01 10:36:00;;;;;;;;;;;17.80;99.90;;;;;;5110674;27;20061;-83
2023/08/01 10:38:26;;;;;;;0.30;0.30;;;17.70;99.90;;;;;;5114458;27;19927;-83
2023/08/01 10:40:51;;;;;;;;;;;17.60;99.90;;;;;;5115291;27;20105;-80
2023/08/01 10:43:21;;;;;;;0.30;0.30;;;17.70;99.90;;;;;;5109810;27;19964;-83
2023/08/01 10:45:47;;;;;;;0.30;0.30;;;18.20;99.90;;;;;;5114112;27;20461;-81
2023/08/01 10:48:13;;;;;;;;;;;18.40;99.90;;;;;;5115742;27;20039;-83
2023/08/01 10:50:40;;;;;;;0.20;0.20;;;18.60;99.90;;;;;;5110288;27;19930;-84
2023/08/01 10:53:08;;;;;;;0.22;0.22;;;18.70;99.90;;;;;;5122550;27;20035;-85
2023/08/01 10:55:45;;;;;;;0.20;0.20;;;19.00;99.90;;;;;;5131839;27;20039;-82
2023/08/01 10:58:13;;;;;;;0.30;0.30;;;19.10;99.90;;;;;;5114952;27;20043;-82
2023/08/01 11:00:38;;;;;;;0.20;0.20;;;19.20;99.90;;;;;;5112963;28;20039;-85
2023/08/01 11:03:04;;;;;;;;;;;19.20;99.90;;;;;;5114121;27;20035;-84
2023/08/01 11:05:31;;;;;;;0.20;0.20;;;19.20;99.90;;;;;;5094730;27;19915;-80
2023/08/01 11:08:01;;;;;;;0.20;0.20;;;19.00;99.90;;;;;;5096556;28;20094;-84
2023/08/01 11:10:31;;;;;;;0.50;0.50;;;19.00;99.90;;;;;;5133259;27;20039;-86
2023/08/01 11:12:57;;;;;;;5.10;1.02;;;19.30;99.90;;;;;;5117158;27;20051;-82
2023/08/01 11:15:24;;;;;;;2.00;0.45;;;19.50;99.90;;;;;;5121454;27;20384;-84
2023/08/01 11:17:51;;;;;;;0.20;0.20;;;19.80;99.90;;;;;;5126551;27;20063;-83
2023/08/01 11:20:19;;;;;;;0.30;0.30;;;20.20;99.90;;;;;;5111371;27;20031;-85
2023/08/01 11:23:00;;;;;;;0.20;0.20;;;20.30;99.90;;;;;;5114551;27;20465;-82
2023/08/01 11:25:42;;;;;;;0.38;0.38;;;20.10;99.90;;;;;;5108275;27;20446;-82
2023/08/01 11:28:13;;;;;;;0.28;0.28;;;19.90;99.90;;;;;;5132108;27;20472;-82
2023/08/01 11:30:40;;;;;;;0.38;0.35;;;19.80;99.90;;;;;;5108998;27;20130;-84
2023/08/01 11:33:23;;;;;;;0.30;0.30;;;19.70;99.90;;;;;;5113202;27;20469;-84
2023/08/01 11:35:55;;;;;;;0.30;0.30;;;19.70;99.90;;;;;;5109283;27;20047;-82
2023/08/01 11:38:23;;;;;;;0.60;0.43;;;19.80;99.90;;;;;;5094344;28;20429;-83
2023/08/01 11:40:50;;;;;;;0.20;0.20;;;19.80;99.90;;;;;;5115428;27;20050;-83
2023/08/01 11:43:16;;;;;;;1.65;1.48;;;20.00;99.90;;;;;;5110199;28;20507;-84
2023/08/01 11:45:54;;;;;;;0.17;0.17;;;20.30;99.90;;;;;;5130593;27;20073;-83
2023/08/01 11:48:21;;;;;;;0.35;0.30;;;20.70;99.90;;;;;;5077568;28;20043;-79
2023/08/01 11:50:47;;;;;;;0.40;0.40;;;21.00;99.90;;;;;;5128608;27;20046;-80
2023/08/01 11:53:22;;;;;;;0.25;0.20;;;21.20;99.90;;;;;;5111163;27;20054;-81
2023/08/01 11:55:52;;;;;;;0.20;0.20;;;21.10;99.90;;;;;;5128932;27;20115;-81
2023/08/01 11:58:35;;;;;;;0.22;0.22;;;21.10;99.90;;;;;;5111490;27;20127;-83
2023/08/01 12:01:12;;;;;;;0.20;0.20;;;21.00;99.90;;;;;;5129867;27;20030;-84
2023/08/01 12:03:50;;;;;;;0.30;0.30;;;20.80;99.90;;;;;;5127233;27;20116;-84
2023/08/01 12:06:19;;;;;;;1.67;1.42;;;20.60;99.90;;;;;;5085551;28;20032;-82
2023/08/01 12:08:47;;;;;;;0.10;0.10;;;20.60;99.90;;;;;;5110616;27;20050;-82
2023/08/01 12:11:20;;;;;;;0.20;0.20;;;20.40;99.90;;;;;;5121753;27;20049;-80
2023/08/01 12:13:46;;;;;;;0.20;0.20;;;20.40;99.90;;;;;;5125869;27;20053;-80
2023/08/01 12:16:12;;;;;;;0.20;0.20;;;20.30;99.90;;;;;;5127664;27;20032;-81
2023/08/01 12:18:39;;;;;;;0.20;0.20;;;20.10;99.90;;;;;;5087460;27;20127;-81
2023/08/01 12:21:05;;;;;;;0.75;0.75;;;20.00;99.90;;;;;;5113198;27;20122;-81
2023/08/01 12:23:31;;;;;;;0.32;0.32;;;19.90;99.90;;;;;;5112010;27;20480;-81
2023/08/01 12:25:57;;;;;;;0.30;0.30;;;19.80;99.90;;;;;;5110139;27;20056;-82
2023/08/01 12:28:22;;;;;;;0.20;0.20;;;19.80;99.90;;;;;;5093240;27;20047;-81
2023/08/01 12:30:49;;;;;;;;;;;19.90;99.90;;;;;;5130467;27;20071;-82
2023/08/01 12:33:14;;;;;;;0.20;0.20;;;20.00;99.90;;;;;;5112592;28;20368;-83
2023/08/01 12:35:41;;;;;;;0.38;0.38;;;20.00;99.90;;;;;;5092741;28;20036;-81
2023/08/01 12:38:07;;;;;;;0.32;0.32;;;20.10;99.90;;;;;;5071129;27;20488;-81
2023/08/01 12:40:33;;;;;;;1.35;1.33;;;20.20;99.90;;;;;;5127241;27;20051;-82
2023/08/01 12:42:59;;;;;;;0.40;0.40;;;20.10;99.90;;;;;;5129038;27;20725;-79
2023/08/01 12:45:25;;;;;;;;;;;20.00;99.90;;;;;;5130560;28;20043;-81
2023/08/01 12:47:51;;;;;;;0.20;0.20;;;20.00;99.90;;;;;;5104366;28;20330;-81
2023/08/01 12:50:17;;;;;;;;;;;20.10;99.90;;;;;;5129878;28;20043;-81
2023/08/01 12:52:42;;;;;;;0.40;0.40;;;20.40;99.90;;;;;;5106085;28;20335;-81
2023/08/01 12:55:08;;;;;;;0.20;0.20;;;20.60;99.90;;;;;;5095184;28;20460;-80
2023/08/01 12:57:34;;;;;;;;;;;20.70;99.90;;;;;;5106028;28;20050;-80